sensor_id;sensor_type;location;lat;lon;timestamp;P1;durP1;ratioP1;P2;durP2;ratioP2
40256;SDS011;25977;45.462;9.210;2024-02-23T00:01:15;9.25;;;6.78;;
40256;SDS011;25977;45.462;9.210;2024-02-23T00:03:40;9.02;;;7.80;;
40256;SDS011;25977;45.462;9.210;2024-02-23T00:06:06;9.45;;;6.97;;
40256;SDS011;25977;45.462;9.210;2024-02-23T00:08:34;11.65;;;8.20;;
40256;SDS011;25977;45.462;9.210;2024-02-23T00:11:12;9.15;;;7.00;;
40256;SDS011;25977;45.462;9.210;2024-02-23T00:13:40;9.00;;;6.55;;
40256;SDS011;25977;45.462;9.210;2024-02-23T00:16:09;7.97;;;6.40;;
40256;SDS011;25977;45.462;9.210;2024-02-23T00:18:38;8.55;;;6.22;;
40256;SDS011;25977;45.462;9.210;2024-02-23T00:21:03;9.10;;;6.53;;
40256;SDS011;25977;45.462;9.210;2024-02-23T00:23:29;10.75;;;6.90;;
40256;SDS011;25977;45.462;9.210;2024-02-23T00:25:55;7.40;;;6.70;;
40256;SDS011;25977;45.462;9.210;2024-02-23T00:28:21;10.55;;;6.20;;
40256;SDS011;25977;45.462;9.210;2024-02-23T00:30:47;8.43;;;6.65;;
40256;SDS011;25977;45.462;9.210;2024-02-23T00:33:13;7.72;;;6.68;;
40256;SDS011;25977;45.462;9.210;2024-02-23T00:35:39;10.55;;;6.32;;
40256;SDS011;25977;45.462;9.210;2024-02-23T00:38:05;7.78;;;6.65;;
40256;SDS011;25977;45.462;9.210;2024-02-23T00:40:32;7.00;;;6.30;;
40256;SDS011;25977;45.462;9.210;2024-02-23T00:42:58;9.43;;;6.85;;
40256;SDS011;25977;45.462;9.210;2024-02-23T00:45:25;6.53;;;5.70;;
40256;SDS011;25977;45.462;9.210;2024-02-23T00:47:50;11.35;;;6.70;;
40256;SDS011;25977;45.462;9.210;2024-02-23T00:50:16;8.07;;;5.75;;
40256;SDS011;25977;45.462;9.210;2024-02-23T00:52:42;8.35;;;6.50;;
40256;SDS011;25977;45.462;9.210;2024-02-23T00:55:08;6.30;;;5.70;;
40256;SDS011;25977;45.462;9.210;2024-02-23T00:57:35;7.68;;;5.70;;
40256;SDS011;25977;45.462;9.210;2024-02-23T01:00:02;6.85;;;4.63;;
40256;SDS011;25977;45.462;9.210;2024-02-23T01:02:30;6.20;;;5.53;;
40256;SDS011;25977;45.462;9.210;2024-02-23T01:04:56;6.13;;;5.07;;
40256;SDS011;25977;45.462;9.210;2024-02-23T01:07:23;7.57;;;4.50;;
40256;SDS011;25977;45.462;9.210;2024-02-23T01:09:49;9.02;;;4.78;;
40256;SDS011;25977;45.462;9.210;2024-02-23T01:12:15;6.60;;;4.75;;
40256;SDS011;25977;45.462;9.210;2024-02-23T01:14:41;6.20;;;4.95;;
40256;SDS011;25977;45.462;9.210;2024-02-23T01:17:06;7.93;;;4.65;;
40256;SDS011;25977;45.462;9.210;2024-02-23T01:19:32;5.60;;;4.53;;
40256;SDS011;25977;45.462;9.210;2024-02-23T01:21:58;3.80;;;3.50;;
40256;SDS011;25977;45.462;9.210;2024-02-23T01:24:26;4.63;;;4.22;;
40256;SDS011;25977;45.462;9.210;2024-02-23T01:26:54;5.32;;;4.50;;
40256;SDS011;25977;45.462;9.210;2024-02-23T01:29:20;5.78;;;5.28;;
40256;SDS011;25977;45.462;9.210;2024-02-23T01:31:47;4.75;;;4.35;;
40256;SDS011;25977;45.462;9.210;2024-02-23T01:34:14;5.65;;;4.63;;
40256;SDS011;25977;45.462;9.210;2024-02-23T01:36:40;6.55;;;4.05;;
40256;SDS011;25977;45.462;9.210;2024-02-23T01:39:05;5.45;;;4.43;;
40256;SDS011;25977;45.462;9.210;2024-02-23T01:41:32;6.00;;;4.22;;
40256;SDS011;25977;45.462;9.210;2024-02-23T01:43:58;7.80;;;4.20;;
40256;SDS011;25977;45.462;9.210;2024-02-23T01:46:24;5.20;;;4.70;;
40256;SDS011;25977;45.462;9.210;2024-02-23T01:48:50;7.75;;;4.20;;
40256;SDS011;25977;45.462;9.210;2024-02-23T01:51:15;4.20;;;3.80;;
40256;SDS011;25977;45.462;9.210;2024-02-23T01:53:41;7.13;;;4.60;;
40256;SDS011;25977;45.462;9.210;2024-02-23T01:56:08;4.57;;;3.80;;
40256;SDS011;25977;45.462;9.210;2024-02-23T01:58:38;4.25;;;3.72;;
40256;SDS011;25977;45.462;9.210;2024-02-23T02:01:05;3.67;;;3.38;;
40256;SDS011;25977;45.462;9.210;2024-02-23T02:03:31;3.90;;;3.60;;
40256;SDS011;25977;45.462;9.210;2024-02-23T02:05:58;5.20;;;3.33;;
40256;SDS011;25977;45.462;9.210;2024-02-23T02:08:25;6.07;;;3.85;;
40256;SDS011;25977;45.462;9.210;2024-02-23T02:10:51;2.40;;;2.20;;
40256;SDS011;25977;45.462;9.210;2024-02-23T02:13:16;2.53;;;2.25;;
40256;SDS011;25977;45.462;9.210;2024-02-23T02:15:42;1.98;;;1.88;;
40256;SDS011;25977;45.462;9.210;2024-02-23T02:18:11;2.88;;;2.03;;
40256;SDS011;25977;45.462;9.210;2024-02-23T02:20:37;4.30;;;3.58;;
40256;SDS011;25977;45.462;9.210;2024-02-23T02:23:10;2.00;;;1.90;;
40256;SDS011;25977;45.462;9.210;2024-02-23T02:25:37;2.00;;;1.77;;
40256;SDS011;25977;45.462;9.210;2024-02-23T02:28:05;1.85;;;1.75;;
40256;SDS011;25977;45.462;9.210;2024-02-23T02:30:31;1.70;;;1.60;;
40256;SDS011;25977;45.462;9.210;2024-02-23T02:32:58;1.92;;;1.83;;
40256;SDS011;25977;45.462;9.210;2024-02-23T02:35:24;2.33;;;2.22;;
40256;SDS011;25977;45.462;9.210;2024-02-23T02:37:50;1.50;;;1.40;;
40256;SDS011;25977;45.462;9.210;2024-02-23T02:40:16;1.70;;;1.38;;
40256;SDS011;25977;45.462;9.210;2024-02-23T02:42:42;1.55;;;1.45;;
40256;SDS011;25977;45.462;9.210;2024-02-23T02:45:07;2.58;;;1.50;;
40256;SDS011;25977;45.462;9.210;2024-02-23T02:47:33;1.40;;;1.25;;
40256;SDS011;25977;45.462;9.210;2024-02-23T02:50:01;1.67;;;1.58;;
40256;SDS011;25977;45.462;9.210;2024-02-23T02:52:27;1.73;;;1.60;;
40256;SDS011;25977;45.462;9.210;2024-02-23T02:54:53;1.30;;;1.20;;
40256;SDS011;25977;45.462;9.210;2024-02-23T02:57:19;1.33;;;1.23;;
40256;SDS011;25977;45.462;9.210;2024-02-23T02:59:45;1.20;;;1.10;;
40256;SDS011;25977;45.462;9.210;2024-02-23T03:02:11;2.13;;;1.05;;
40256;SDS011;25977;45.462;9.210;2024-02-23T03:04:37;1.58;;;1.02;;
40256;SDS011;25977;45.462;9.210;2024-02-23T03:07:03;1.25;;;1.15;;
40256;SDS011;25977;45.462;9.210;2024-02-23T03:09:29;1.10;;;1.00;;
40256;SDS011;25977;45.462;9.210;2024-02-23T03:11:54;1.00;;;1.00;;
40256;SDS011;25977;45.462;9.210;2024-02-23T03:14:20;0.80;;;0.80;;
40256;SDS011;25977;45.462;9.210;2024-02-23T03:16:47;13.55;;;1.75;;
40256;SDS011;25977;45.462;9.210;2024-02-23T03:19:14;1.30;;;1.17;;
40256;SDS011;25977;45.462;9.210;2024-02-23T03:21:40;2.85;;;1.05;;
40256;SDS011;25977;45.462;9.210;2024-02-23T03:24:06;1.48;;;1.38;;
40256;SDS011;25977;45.462;9.210;2024-02-23T03:26:32;1.33;;;1.25;;
40256;SDS011;25977;45.462;9.210;2024-02-23T03:28:57;1.33;;;1.23;;
40256;SDS011;25977;45.462;9.210;2024-02-23T03:31:23;2.03;;;1.05;;
40256;SDS011;25977;45.462;9.210;2024-02-23T03:33:49;1.70;;;1.17;;
40256;SDS011;25977;45.462;9.210;2024-02-23T03:36:18;1.58;;;1.48;;
40256;SDS011;25977;45.462;9.210;2024-02-23T03:38:43;1.25;;;1.20;;
40256;SDS011;25977;45.462;9.210;2024-02-23T03:41:09;4.93;;;1.27;;
40256;SDS011;25977;45.462;9.210;2024-02-23T03:43:35;1.73;;;1.63;;
40256;SDS011;25977;45.462;9.210;2024-02-23T03:46:03;1.40;;;1.30;;
40256;SDS011;25977;45.462;9.210;2024-02-23T03:48:31;1.10;;;0.98;;
40256;SDS011;25977;45.462;9.210;2024-02-23T03:51:09;3.60;;;1.77;;
40256;SDS011;25977;45.462;9.210;2024-02-23T03:53:38;1.98;;;1.50;;
40256;SDS011;25977;45.462;9.210;2024-02-23T03:56:07;1.30;;;1.27;;
40256;SDS011;25977;45.462;9.210;2024-02-23T03:58:34;2.47;;;1.70;;
40256;SDS011;25977;45.462;9.210;2024-02-23T04:00:59;1.83;;;1.42;;
40256;SDS011;25977;45.462;9.210;2024-02-23T04:03:25;1.90;;;1.80;;
40256;SDS011;25977;45.462;9.210;2024-02-23T04:05:54;1.45;;;1.33;;
40256;SDS011;25977;45.462;9.210;2024-02-23T04:08:20;1.45;;;1.35;;
40256;SDS011;25977;45.462;9.210;2024-02-23T04:10:45;1.95;;;1.85;;
40256;SDS011;25977;45.462;9.210;2024-02-23T04:13:11;2.13;;;1.83;;
40256;SDS011;25977;45.462;9.210;2024-02-23T04:15:39;2.83;;;1.58;;
40256;SDS011;25977;45.462;9.210;2024-02-23T04:18:05;2.80;;;2.60;;
40256;SDS011;25977;45.462;9.210;2024-02-23T04:20:31;1.75;;;1.65;;
40256;SDS011;25977;45.462;9.210;2024-02-23T04:22:58;2.20;;;2.10;;
40256;SDS011;25977;45.462;9.210;2024-02-23T04:25:24;2.10;;;1.80;;
40256;SDS011;25977;45.462;9.210;2024-02-23T04:27:50;2.38;;;2.17;;
40256;SDS011;25977;45.462;9.210;2024-02-23T04:30:16;3.90;;;2.40;;
40256;SDS011;25977;45.462;9.210;2024-02-23T04:32:42;1.90;;;1.70;;
40256;SDS011;25977;45.462;9.210;2024-02-23T04:35:09;2.80;;;2.60;;
40256;SDS011;25977;45.462;9.210;2024-02-23T04:37:39;2.40;;;2.20;;
40256;SDS011;25977;45.462;9.210;2024-02-23T04:40:05;2.40;;;2.30;;
40256;SDS011;25977;45.462;9.210;2024-02-23T04:42:31;1.88;;;1.70;;
40256;SDS011;25977;45.462;9.210;2024-02-23T04:44:57;2.33;;;2.08;;
40256;SDS011;25977;45.462;9.210;2024-02-23T04:47:23;3.15;;;2.25;;
40256;SDS011;25977;45.462;9.210;2024-02-23T04:49:48;2.10;;;1.90;;
40256;SDS011;25977;45.462;9.210;2024-02-23T04:52:14;2.25;;;2.08;;
40256;SDS011;25977;45.462;9.210;2024-02-23T04:54:40;1.88;;;1.77;;
40256;SDS011;25977;45.462;9.210;2024-02-23T04:57:06;1.73;;;1.63;;
40256;SDS011;25977;45.462;9.210;2024-02-23T04:59:31;2.13;;;2.03;;
40256;SDS011;25977;45.462;9.210;2024-02-23T05:01:57;2.38;;;2.28;;
40256;SDS011;25977;45.462;9.210;2024-02-23T05:04:23;2.53;;;2.35;;
40256;SDS011;25977;45.462;9.210;2024-02-23T05:06:51;3.83;;;3.28;;
40256;SDS011;25977;45.462;9.210;2024-02-23T05:09:17;2.80;;;2.53;;
40256;SDS011;25977;45.462;9.210;2024-02-23T05:11:44;5.63;;;2.53;;
40256;SDS011;25977;45.462;9.210;2024-02-23T05:14:11;3.30;;;2.42;;
40256;SDS011;25977;45.462;9.210;2024-02-23T05:16:36;2.60;;;2.40;;
40256;SDS011;25977;45.462;9.210;2024-02-23T05:19:02;2.47;;;2.28;;
40256;SDS011;25977;45.462;9.210;2024-02-23T05:21:28;2.10;;;2.00;;
40256;SDS011;25977;45.462;9.210;2024-02-23T05:23:53;6.45;;;2.88;;
40256;SDS011;25977;45.462;9.210;2024-02-23T05:26:19;3.10;;;2.80;;
40256;SDS011;25977;45.462;9.210;2024-02-23T05:28:45;2.78;;;2.58;;
40256;SDS011;25977;45.462;9.210;2024-02-23T05:31:11;8.70;;;2.55;;
40256;SDS011;25977;45.462;9.210;2024-02-23T05:33:37;3.13;;;2.92;;
40256;SDS011;25977;45.462;9.210;2024-02-23T05:36:04;2.70;;;2.50;;
40256;SDS011;25977;45.462;9.210;2024-02-23T05:38:30;3.10;;;2.80;;
40256;SDS011;25977;45.462;9.210;2024-02-23T05:40:56;3.38;;;3.08;;
40256;SDS011;25977;45.462;9.210;2024-02-23T05:43:21;16.30;;;2.90;;
40256;SDS011;25977;45.462;9.210;2024-02-23T05:45:47;2.70;;;2.50;;
40256;SDS011;25977;45.462;9.210;2024-02-23T05:48:13;3.40;;;2.50;;
40256;SDS011;25977;45.462;9.210;2024-02-23T05:50:39;3.42;;;3.13;;
40256;SDS011;25977;45.462;9.210;2024-02-23T05:53:04;3.40;;;3.20;;
40256;SDS011;25977;45.462;9.210;2024-02-23T05:55:30;3.22;;;2.95;;
40256;SDS011;25977;45.462;9.210;2024-02-23T05:57:56;3.15;;;2.92;;
40256;SDS011;25977;45.462;9.210;2024-02-23T06:00:22;2.70;;;2.60;;
40256;SDS011;25977;45.462;9.210;2024-02-23T06:02:47;2.85;;;2.65;;
40256;SDS011;25977;45.462;9.210;2024-02-23T06:05:13;2.80;;;2.60;;
40256;SDS011;25977;45.462;9.210;2024-02-23T06:07:39;2.60;;;2.40;;
40256;SDS011;25977;45.462;9.210;2024-02-23T06:10:06;2.40;;;2.30;;
40256;SDS011;25977;45.462;9.210;2024-02-23T06:12:32;3.17;;;2.97;;
40256;SDS011;25977;45.462;9.210;2024-02-23T06:14:58;4.32;;;3.40;;
40256;SDS011;25977;45.462;9.210;2024-02-23T06:17:24;3.30;;;3.10;;
40256;SDS011;25977;45.462;9.210;2024-02-23T06:19:51;3.33;;;2.90;;
40256;SDS011;25977;45.462;9.210;2024-02-23T06:22:18;3.15;;;2.95;;
40256;SDS011;25977;45.462;9.210;2024-02-23T06:24:46;3.03;;;2.67;;
40256;SDS011;25977;45.462;9.210;2024-02-23T06:27:12;3.53;;;3.30;;
40256;SDS011;25977;45.462;9.210;2024-02-23T06:29:38;4.30;;;3.83;;
40256;SDS011;25977;45.462;9.210;2024-02-23T06:32:03;3.50;;;3.28;;
40256;SDS011;25977;45.462;9.210;2024-02-23T06:34:30;3.35;;;3.05;;
40256;SDS011;25977;45.462;9.210;2024-02-23T06:36:55;3.50;;;3.30;;
40256;SDS011;25977;45.462;9.210;2024-02-23T06:39:21;3.55;;;3.25;;
40256;SDS011;25977;45.462;9.210;2024-02-23T06:41:46;4.20;;;3.35;;
40256;SDS011;25977;45.462;9.210;2024-02-23T06:44:12;2.40;;;2.30;;
40256;SDS011;25977;45.462;9.210;2024-02-23T06:46:38;2.60;;;2.40;;
40256;SDS011;25977;45.462;9.210;2024-02-23T06:49:03;3.33;;;3.03;;
40256;SDS011;25977;45.462;9.210;2024-02-23T06:51:31;4.30;;;2.67;;
40256;SDS011;25977;45.462;9.210;2024-02-23T06:53:56;1.90;;;1.80;;
40256;SDS011;25977;45.462;9.210;2024-02-23T06:56:22;4.70;;;1.98;;
40256;SDS011;25977;45.462;9.210;2024-02-23T06:58:48;2.53;;;2.10;;
40256;SDS011;25977;45.462;9.210;2024-02-23T07:01:14;3.45;;;2.30;;
40256;SDS011;25977;45.462;9.210;2024-02-23T07:03:39;2.05;;;1.95;;
40256;SDS011;25977;45.462;9.210;2024-02-23T07:06:07;1.98;;;1.50;;
40256;SDS011;25977;45.462;9.210;2024-02-23T07:08:35;2.20;;;2.00;;
40256;SDS011;25977;45.462;9.210;2024-02-23T07:11:01;1.35;;;1.33;;
40256;SDS011;25977;45.462;9.210;2024-02-23T07:13:27;1.75;;;1.60;;
40256;SDS011;25977;45.462;9.210;2024-02-23T07:15:53;1.88;;;1.33;;
40256;SDS011;25977;45.462;9.210;2024-02-23T07:18:20;1.30;;;1.20;;
40256;SDS011;25977;45.462;9.210;2024-02-23T07:20:46;1.67;;;1.58;;
40256;SDS011;25977;45.462;9.210;2024-02-23T07:23:12;1.80;;;1.40;;
40256;SDS011;25977;45.462;9.210;2024-02-23T07:25:38;1.08;;;0.98;;
40256;SDS011;25977;45.462;9.210;2024-02-23T07:28:04;1.83;;;1.15;;
40256;SDS011;25977;45.462;9.210;2024-02-23T07:30:29;1.98;;;1.60;;
40256;SDS011;25977;45.462;9.210;2024-02-23T07:32:55;2.60;;;1.48;;
40256;SDS011;25977;45.462;9.210;2024-02-23T07:35:21;1.75;;;1.65;;
40256;SDS011;25977;45.462;9.210;2024-02-23T07:37:46;4.55;;;2.17;;
40256;SDS011;25977;45.462;9.210;2024-02-23T07:40:12;1.83;;;1.30;;
40256;SDS011;25977;45.462;9.210;2024-02-23T07:42:38;1.58;;;1.48;;
40256;SDS011;25977;45.462;9.210;2024-02-23T07:45:04;1.10;;;1.00;;
40256;SDS011;25977;45.462;9.210;2024-02-23T07:47:31;1.80;;;1.33;;
40256;SDS011;25977;45.462;9.210;2024-02-23T07:49:57;1.60;;;1.35;;
40256;SDS011;25977;45.462;9.210;2024-02-23T07:52:23;1.35;;;1.25;;
40256;SDS011;25977;45.462;9.210;2024-02-23T07:54:51;1.20;;;1.10;;
40256;SDS011;25977;45.462;9.210;2024-02-23T07:57:18;3.28;;;2.28;;
40256;SDS011;25977;45.462;9.210;2024-02-23T07:59:44;1.70;;;1.60;;
40256;SDS011;25977;45.462;9.210;2024-02-23T08:02:10;4.55;;;1.63;;
40256;SDS011;25977;45.462;9.210;2024-02-23T08:04:35;1.70;;;1.60;;
40256;SDS011;25977;45.462;9.210;2024-02-23T08:07:01;1.40;;;1.30;;
40256;SDS011;25977;45.462;9.210;2024-02-23T08:09:27;2.15;;;1.48;;
40256;SDS011;25977;45.462;9.210;2024-02-23T08:11:53;2.35;;;2.15;;
40256;SDS011;25977;45.462;9.210;2024-02-23T08:14:18;1.67;;;1.50;;
40256;SDS011;25977;45.462;9.210;2024-02-23T08:16:44;1.77;;;1.67;;
40256;SDS011;25977;45.462;9.210;2024-02-23T08:19:10;2.15;;;1.95;;
40256;SDS011;25977;45.462;9.210;2024-02-23T08:21:36;1.20;;;1.10;;
40256;SDS011;25977;45.462;9.210;2024-02-23T08:24:02;2.40;;;1.60;;
40256;SDS011;25977;45.462;9.210;2024-02-23T08:26:28;1.55;;;1.20;;
40256;SDS011;25977;45.462;9.210;2024-02-23T08:28:54;1.50;;;1.40;;
40256;SDS011;25977;45.462;9.210;2024-02-23T08:31:20;1.58;;;1.48;;
40256;SDS011;25977;45.462;9.210;2024-02-23T08:33:45;1.27;;;1.17;;
40256;SDS011;25977;45.462;9.210;2024-02-23T08:36:12;4.47;;;2.00;;
40256;SDS011;25977;45.462;9.210;2024-02-23T08:38:37;2.83;;;1.92;;
40256;SDS011;25977;45.462;9.210;2024-02-23T08:41:04;1.48;;;1.38;;
40256;SDS011;25977;45.462;9.210;2024-02-23T08:43:29;2.00;;;1.88;;
40256;SDS011;25977;45.462;9.210;2024-02-23T08:45:55;2.30;;;1.73;;
40256;SDS011;25977;45.462;9.210;2024-02-23T08:48:21;1.45;;;1.35;;
40256;SDS011;25977;45.462;9.210;2024-02-23T08:50:46;2.15;;;1.40;;
40256;SDS011;25977;45.462;9.210;2024-02-23T08:53:12;1.65;;;1.55;;
40256;SDS011;25977;45.462;9.210;2024-02-23T08:55:38;4.63;;;1.02;;
40256;SDS011;25977;45.462;9.210;2024-02-23T08:58:03;1.10;;;1.10;;
40256;SDS011;25977;45.462;9.210;2024-02-23T09:00:32;1.60;;;1.50;;
40256;SDS011;25977;45.462;9.210;2024-02-23T09:02:57;1.45;;;1.40;;
40256;SDS011;25977;45.462;9.210;2024-02-23T09:05:23;1.05;;;0.95;;
40256;SDS011;25977;45.462;9.210;2024-02-23T09:07:49;1.88;;;1.77;;
40256;SDS011;25977;45.462;9.210;2024-02-23T09:10:14;1.75;;;1.45;;
40256;SDS011;25977;45.462;9.210;2024-02-23T09:12:40;1.55;;;1.52;;
40256;SDS011;25977;45.462;9.210;2024-02-23T09:15:06;1.75;;;1.65;;
40256;SDS011;25977;45.462;9.210;2024-02-23T09:17:32;5.20;;;2.13;;
40256;SDS011;25977;45.462;9.210;2024-02-23T09:19:58;2.25;;;2.15;;
40256;SDS011;25977;45.462;9.210;2024-02-23T09:22:24;2.60;;;2.40;;
40256;SDS011;25977;45.462;9.210;2024-02-23T09:24:49;2.80;;;2.58;;
40256;SDS011;25977;45.462;9.210;2024-02-23T09:27:15;4.13;;;2.50;;
40256;SDS011;25977;45.462;9.210;2024-02-23T09:29:41;3.78;;;2.40;;
40256;SDS011;25977;45.462;9.210;2024-02-23T09:32:07;2.38;;;2.15;;
40256;SDS011;25977;45.462;9.210;2024-02-23T09:34:33;4.75;;;3.00;;
40256;SDS011;25977;45.462;9.210;2024-02-23T09:36:59;3.20;;;2.30;;
40256;SDS011;25977;45.462;9.210;2024-02-23T09:39:24;2.20;;;2.10;;
40256;SDS011;25977;45.462;9.210;2024-02-23T09:41:53;3.17;;;2.30;;
40256;SDS011;25977;45.462;9.210;2024-02-23T09:44:19;2.95;;;2.65;;
40256;SDS011;25977;45.462;9.210;2024-02-23T09:46:48;2.75;;;2.55;;
40256;SDS011;25977;45.462;9.210;2024-02-23T09:49:17;3.22;;;3.05;;
40256;SDS011;25977;45.462;9.210;2024-02-23T09:51:43;2.38;;;2.17;;
40256;SDS011;25977;45.462;9.210;2024-02-23T09:54:09;2.65;;;2.50;;
40256;SDS011;25977;45.462;9.210;2024-02-23T09:56:35;3.17;;;2.40;;
40256;SDS011;25977;45.462;9.210;2024-02-23T09:59:02;2.83;;;2.63;;
40256;SDS011;25977;45.462;9.210;2024-02-23T10:01:29;2.75;;;2.63;;
40256;SDS011;25977;45.462;9.210;2024-02-23T10:03:58;2.28;;;2.17;;
40256;SDS011;25977;45.462;9.210;2024-02-23T10:06:25;2.40;;;2.28;;
40256;SDS011;25977;45.462;9.210;2024-02-23T10:08:51;2.40;;;2.22;;
40256;SDS011;25977;45.462;9.210;2024-02-23T10:11:20;2.85;;;2.65;;
40256;SDS011;25977;45.462;9.210;2024-02-23T10:13:47;3.88;;;2.63;;
40256;SDS011;25977;45.462;9.210;2024-02-23T10:16:15;2.50;;;2.30;;
40256;SDS011;25977;45.462;9.210;2024-02-23T10:18:42;3.95;;;2.30;;
40256;SDS011;25977;45.462;9.210;2024-02-23T10:21:08;2.90;;;2.67;;
40256;SDS011;25977;45.462;9.210;2024-02-23T10:23:33;3.25;;;2.88;;
40256;SDS011;25977;45.462;9.210;2024-02-23T10:25:59;4.45;;;2.80;;
40256;SDS011;25977;45.462;9.210;2024-02-23T10:28:24;3.22;;;3.03;;
40256;SDS011;25977;45.462;9.210;2024-02-23T10:30:50;3.63;;;3.42;;
40256;SDS011;25977;45.462;9.210;2024-02-23T10:33:17;3.25;;;3.05;;
40256;SDS011;25977;45.462;9.210;2024-02-23T10:35:46;9.55;;;4.47;;
40256;SDS011;25977;45.462;9.210;2024-02-23T10:38:13;6.97;;;5.38;;
40256;SDS011;25977;45.462;9.210;2024-02-23T10:40:43;3.95;;;3.65;;
40256;SDS011;25977;45.462;9.210;2024-02-23T10:43:11;4.68;;;4.28;;
40256;SDS011;25977;45.462;9.210;2024-02-23T10:45:41;6.65;;;4.35;;
40256;SDS011;25977;45.462;9.210;2024-02-23T10:48:08;6.28;;;5.68;;
40256;SDS011;25977;45.462;9.210;2024-02-23T10:50:35;7.43;;;6.47;;
40256;SDS011;25977;45.462;9.210;2024-02-23T10:53:03;7.10;;;6.50;;
40256;SDS011;25977;45.462;9.210;2024-02-23T10:55:31;7.90;;;7.10;;
40256;SDS011;25977;45.462;9.210;2024-02-23T10:57:58;7.20;;;6.50;;
40256;SDS011;25977;45.462;9.210;2024-02-23T11:00:24;7.88;;;5.90;;
40256;SDS011;25977;45.462;9.210;2024-02-23T11:02:51;8.07;;;7.28;;
40256;SDS011;25977;45.462;9.210;2024-02-23T11:05:19;7.70;;;7.00;;
40256;SDS011;25977;45.462;9.210;2024-02-23T11:07:48;9.18;;;8.07;;
40256;SDS011;25977;45.462;9.210;2024-02-23T11:10:14;7.38;;;6.75;;
40256;SDS011;25977;45.462;9.210;2024-02-23T11:12:41;15.88;;;8.07;;
40256;SDS011;25977;45.462;9.210;2024-02-23T11:15:08;8.00;;;6.85;;
40256;SDS011;25977;45.462;9.210;2024-02-23T11:17:35;7.88;;;6.93;;
40256;SDS011;25977;45.462;9.210;2024-02-23T11:20:02;13.18;;;7.70;;
40256;SDS011;25977;45.462;9.210;2024-02-23T11:22:33;8.07;;;5.95;;
40256;SDS011;25977;45.462;9.210;2024-02-23T11:25:06;7.45;;;6.47;;
40256;SDS011;25977;45.462;9.210;2024-02-23T11:27:38;8.43;;;6.43;;
40256;SDS011;25977;45.462;9.210;2024-02-23T11:30:09;6.95;;;6.05;;
40256;SDS011;25977;45.462;9.210;2024-02-23T11:32:43;8.13;;;6.45;;
40256;SDS011;25977;45.462;9.210;2024-02-23T11:35:12;6.47;;;5.88;;
40256;SDS011;25977;45.462;9.210;2024-02-23T11:37:49;8.70;;;7.07;;
40256;SDS011;25977;45.462;9.210;2024-02-23T11:40:25;7.47;;;6.30;;
40256;SDS011;25977;45.462;9.210;2024-02-23T11:42:51;7.95;;;6.60;;
40256;SDS011;25977;45.462;9.210;2024-02-23T11:45:17;7.85;;;6.75;;
40256;SDS011;25977;45.462;9.210;2024-02-23T11:47:43;9.07;;;7.85;;
40256;SDS011;25977;45.462;9.210;2024-02-23T11:50:09;10.10;;;7.38;;
40256;SDS011;25977;45.462;9.210;2024-02-23T11:52:38;9.23;;;8.38;;
40256;SDS011;25977;45.462;9.210;2024-02-23T11:55:06;8.20;;;7.18;;
40256;SDS011;25977;45.462;9.210;2024-02-23T11:57:33;7.43;;;6.70;;
40256;SDS011;25977;45.462;9.210;2024-02-23T12:00:01;7.45;;;6.70;;
40256;SDS011;25977;45.462;9.210;2024-02-23T12:02:30;8.05;;;6.75;;
40256;SDS011;25977;45.462;9.210;2024-02-23T12:04:56;9.32;;;7.22;;
40256;SDS011;25977;45.462;9.210;2024-02-23T12:07:21;7.40;;;6.68;;
40256;SDS011;25977;45.462;9.210;2024-02-23T12:09:47;9.07;;;7.07;;
40256;SDS011;25977;45.462;9.210;2024-02-23T12:12:13;7.15;;;6.45;;
40256;SDS011;25977;45.462;9.210;2024-02-23T12:14:39;8.13;;;7.18;;
40256;SDS011;25977;45.462;9.210;2024-02-23T12:17:07;7.13;;;6.53;;
40256;SDS011;25977;45.462;9.210;2024-02-23T12:19:37;8.15;;;7.18;;
40256;SDS011;25977;45.462;9.210;2024-02-23T12:22:12;9.13;;;6.50;;
40256;SDS011;25977;45.462;9.210;2024-02-23T12:24:38;8.13;;;7.15;;
40256;SDS011;25977;45.462;9.210;2024-02-23T12:27:06;7.55;;;6.75;;
40256;SDS011;25977;45.462;9.210;2024-02-23T12:29:32;10.45;;;7.72;;
40256;SDS011;25977;45.462;9.210;2024-02-23T12:32:04;6.78;;;6.18;;
40256;SDS011;25977;45.462;9.210;2024-02-23T12:34:31;6.50;;;5.90;;
40256;SDS011;25977;45.462;9.210;2024-02-23T12:36:56;7.20;;;6.47;;
40256;SDS011;25977;45.462;9.210;2024-02-23T12:39:22;5.88;;;5.38;;
40256;SDS011;25977;45.462;9.210;2024-02-23T12:41:48;6.82;;;6.18;;
40256;SDS011;25977;45.462;9.210;2024-02-23T12:44:13;7.10;;;6.50;;
40256;SDS011;25977;45.462;9.210;2024-02-23T12:46:39;7.00;;;6.32;;
40256;SDS011;25977;45.462;9.210;2024-02-23T12:49:05;9.35;;;6.30;;
40256;SDS011;25977;45.462;9.210;2024-02-23T12:51:31;6.53;;;5.90;;
40256;SDS011;25977;45.462;9.210;2024-02-23T12:53:57;7.45;;;6.00;;
40256;SDS011;25977;45.462;9.210;2024-02-23T12:56:22;5.38;;;4.97;;
40256;SDS011;25977;45.462;9.210;2024-02-23T12:58:50;8.27;;;5.03;;
40256;SDS011;25977;45.462;9.210;2024-02-23T13:01:15;6.05;;;5.45;;
40256;SDS011;25977;45.462;9.210;2024-02-23T13:03:41;6.25;;;5.68;;
40256;SDS011;25977;45.462;9.210;2024-02-23T13:06:07;6.65;;;5.10;;
40256;SDS011;25977;45.462;9.210;2024-02-23T13:08:33;5.22;;;4.72;;
40256;SDS011;25977;45.462;9.210;2024-02-23T13:10:59;5.53;;;5.05;;
40256;SDS011;25977;45.462;9.210;2024-02-23T13:13:25;5.35;;;4.90;;
40256;SDS011;25977;45.462;9.210;2024-02-23T13:15:51;8.68;;;5.43;;
40256;SDS011;25977;45.462;9.210;2024-02-23T13:18:18;5.50;;;5.07;;
40256;SDS011;25977;45.462;9.210;2024-02-23T13:20:44;6.22;;;5.65;;
40256;SDS011;25977;45.462;9.210;2024-02-23T13:23:10;6.28;;;5.72;;
40256;SDS011;25977;45.462;9.210;2024-02-23T13:25:37;11.45;;;6.20;;
40256;SDS011;25977;45.462;9.210;2024-02-23T13:28:04;7.10;;;6.40;;
40256;SDS011;25977;45.462;9.210;2024-02-23T13:30:31;8.20;;;5.90;;
40256;SDS011;25977;45.462;9.210;2024-02-23T13:32:57;7.05;;;6.35;;
40256;SDS011;25977;45.462;9.210;2024-02-23T13:35:23;6.95;;;5.85;;
40256;SDS011;25977;45.462;9.210;2024-02-23T13:37:49;6.25;;;5.72;;
40256;SDS011;25977;45.462;9.210;2024-02-23T13:40:15;7.10;;;5.85;;
40256;SDS011;25977;45.462;9.210;2024-02-23T13:42:41;7.30;;;6.05;;
40256;SDS011;25977;45.462;9.210;2024-02-23T13:45:08;7.28;;;6.50;;
40256;SDS011;25977;45.462;9.210;2024-02-23T13:47:34;11.18;;;7.03;;
40256;SDS011;25977;45.462;9.210;2024-02-23T13:50:01;5.38;;;4.97;;
40256;SDS011;25977;45.462;9.210;2024-02-23T13:52:27;6.75;;;6.15;;
40256;SDS011;25977;45.462;9.210;2024-02-23T13:54:53;7.15;;;6.45;;
40256;SDS011;25977;45.462;9.210;2024-02-23T13:57:19;6.85;;;6.25;;
40256;SDS011;25977;45.462;9.210;2024-02-23T13:59:45;6.78;;;6.18;;
40256;SDS011;25977;45.462;9.210;2024-02-23T14:02:11;7.15;;;6.55;;
40256;SDS011;25977;45.462;9.210;2024-02-23T14:04:37;7.38;;;6.45;;
40256;SDS011;25977;45.462;9.210;2024-02-23T14:07:03;6.38;;;5.88;;
40256;SDS011;25977;45.462;9.210;2024-02-23T14:09:29;7.05;;;6.45;;
40256;SDS011;25977;45.462;9.210;2024-02-23T14:11:55;6.70;;;6.20;;
40256;SDS011;25977;45.462;9.210;2024-02-23T14:14:22;6.45;;;5.95;;
40256;SDS011;25977;45.462;9.210;2024-02-23T14:16:48;6.57;;;5.97;;
40256;SDS011;25977;45.462;9.210;2024-02-23T14:19:14;6.60;;;6.05;;
40256;SDS011;25977;45.462;9.210;2024-02-23T14:21:40;9.45;;;7.22;;
40256;SDS011;25977;45.462;9.210;2024-02-23T14:24:06;7.60;;;6.80;;
40256;SDS011;25977;45.462;9.210;2024-02-23T14:26:31;9.23;;;6.68;;
40256;SDS011;25977;45.462;9.210;2024-02-23T14:28:58;7.82;;;7.18;;
40256;SDS011;25977;45.462;9.210;2024-02-23T14:31:24;7.45;;;6.75;;
40256;SDS011;25977;45.462;9.210;2024-02-23T14:33:50;7.53;;;6.93;;
40256;SDS011;25977;45.462;9.210;2024-02-23T14:36:17;7.05;;;6.45;;
40256;SDS011;25977;45.462;9.210;2024-02-23T14:38:43;8.00;;;6.85;;
40256;SDS011;25977;45.462;9.210;2024-02-23T14:41:09;10.23;;;6.53;;
40256;SDS011;25977;45.462;9.210;2024-02-23T14:43:35;8.93;;;7.97;;